sensor_id;sensor_type;location;lat;lon;timestamp;P1;durP1;ratioP1;P2;durP2;ratioP2
19089;SDS011;9677;50.656;13.064;2023-03-01T03:11:42;13.70;;;12.50;;
19089;SDS011;9677;50.656;13.064;2023-03-01T03:38:13;13.73;;;12.53;;
19089;SDS011;9677;50.656;13.064;2023-03-01T03:47:29;14.57;;;13.30;;
19089;SDS011;9677;50.656;13.064;2023-03-01T03:53:38;14.90;;;13.60;;
19089;SDS011;9677;50.656;13.064;2023-03-01T04:02:18;14.20;;;12.83;;
19089;SDS011;9677;50.656;13.064;2023-03-01T04:04:55;14.17;;;12.97;;
19089;SDS011;9677;50.656;13.064;2023-03-01T04:07:28;14.20;;;13.00;;
19089;SDS011;9677;50.656;13.064;2023-03-01T04:10:01;14.43;;;13.13;;
19089;SDS011;9677;50.656;13.064;2023-03-01T04:12:31;14.10;;;12.90;;
19089;SDS011;9677;50.656;13.064;2023-03-01T04:15:01;13.87;;;12.57;;
19089;SDS011;9677;50.656;13.064;2023-03-01T04:17:40;14.23;;;12.93;;
19089;SDS011;9677;50.656;13.064;2023-03-01T04:20:10;13.90;;;12.70;;
19089;SDS011;9677;50.656;13.064;2023-03-01T04:22:44;14.93;;;13.63;;
19089;SDS011;9677;50.656;13.064;2023-03-01T04:25:15;14.00;;;12.80;;
19089;SDS011;9677;50.656;13.064;2023-03-01T04:27:44;14.73;;;13.40;;
19089;SDS011;9677;50.656;13.064;2023-03-01T04:30:13;16.00;;;14.60;;
19089;SDS011;9677;50.656;13.064;2023-03-01T04:32:42;15.27;;;13.87;;
19089;SDS011;9677;50.656;13.064;2023-03-01T04:35:11;14.97;;;13.67;;
19089;SDS011;9677;50.656;13.064;2023-03-01T04:37:39;14.70;;;13.30;;
19089;SDS011;9677;50.656;13.064;2023-03-01T04:40:08;15.50;;;14.07;;
19089;SDS011;9677;50.656;13.064;2023-03-01T04:42:44;15.03;;;13.57;;
19089;SDS011;9677;50.656;13.064;2023-03-01T04:45:13;15.37;;;13.77;;
19089;SDS011;9677;50.656;13.064;2023-03-01T04:47:42;14.73;;;13.43;;
19089;SDS011;9677;50.656;13.064;2023-03-01T04:50:14;14.50;;;13.20;;
19089;SDS011;9677;50.656;13.064;2023-03-01T04:52:46;15.77;;;13.50;;
19089;SDS011;9677;50.656;13.064;2023-03-01T04:55:17;14.83;;;13.53;;
19089;SDS011;9677;50.656;13.064;2023-03-01T04:57:48;15.33;;;13.87;;
19089;SDS011;9677;50.656;13.064;2023-03-01T05:00:16;16.17;;;13.73;;
19089;SDS011;9677;50.656;13.064;2023-03-01T05:02:49;14.53;;;13.20;;
19089;SDS011;9677;50.656;13.064;2023-03-01T05:05:21;14.60;;;13.20;;
19089;SDS011;9677;50.656;13.064;2023-03-01T05:07:53;15.13;;;13.80;;
19089;SDS011;9677;50.656;13.064;2023-03-01T05:10:23;15.77;;;14.27;;
19089;SDS011;9677;50.656;13.064;2023-03-01T05:12:56;15.77;;;14.17;;
19089;SDS011;9677;50.656;13.064;2023-03-01T05:15:26;14.80;;;13.50;;
19089;SDS011;9677;50.656;13.064;2023-03-01T05:21:25;14.57;;;13.37;;
19089;SDS011;9677;50.656;13.064;2023-03-01T05:24:06;15.80;;;14.40;;
19089;SDS011;9677;50.656;13.064;2023-03-01T05:26:38;15.13;;;13.63;;
19089;SDS011;9677;50.656;13.064;2023-03-01T05:29:13;14.67;;;13.27;;
19089;SDS011;9677;50.656;13.064;2023-03-01T05:31:49;14.97;;;13.50;;
19089;SDS011;9677;50.656;13.064;2023-03-01T05:34:22;15.13;;;13.80;;
19089;SDS011;9677;50.656;13.064;2023-03-01T05:36:52;14.43;;;13.13;;
19089;SDS011;9677;50.656;13.064;2023-03-01T05:39:22;14.73;;;13.43;;
19089;SDS011;9677;50.656;13.064;2023-03-01T05:41:53;14.90;;;13.70;;
19089;SDS011;9677;50.656;13.064;2023-03-01T05:44:25;15.90;;;14.30;;
19089;SDS011;9677;50.656;13.064;2023-03-01T05:46:54;15.17;;;13.87;;
19089;SDS011;9677;50.656;13.064;2023-03-01T05:49:22;15.03;;;13.73;;
19089;SDS011;9677;50.656;13.064;2023-03-01T05:51:52;15.27;;;13.97;;
19089;SDS011;9677;50.656;13.064;2023-03-01T05:54:22;14.50;;;13.30;;
19089;SDS011;9677;50.656;13.064;2023-03-01T05:56:51;15.53;;;14.13;;
19089;SDS011;9677;50.656;13.064;2023-03-01T05:59:19;15.10;;;13.70;;
19089;SDS011;9677;50.656;13.064;2023-03-01T06:01:49;14.83;;;13.53;;
19089;SDS011;9677;50.656;13.064;2023-03-01T06:04:18;14.83;;;13.53;;
19089;SDS011;9677;50.656;13.064;2023-03-01T06:06:47;15.67;;;14.10;;
19089;SDS011;9677;50.656;13.064;2023-03-01T06:09:15;14.27;;;13.00;;
19089;SDS011;9677;50.656;13.064;2023-03-01T06:11:47;15.10;;;13.70;;
19089;SDS011;9677;50.656;13.064;2023-03-01T06:14:46;15.13;;;13.73;;
19089;SDS011;9677;50.656;13.064;2023-03-01T06:17:16;14.47;;;13.27;;
19089;SDS011;9677;50.656;13.064;2023-03-01T06:25:56;14.67;;;13.37;;
19089;SDS011;9677;50.656;13.064;2023-03-01T06:28:31;14.40;;;13.20;;
19089;SDS011;9677;50.656;13.064;2023-03-01T06:34:55;16.03;;;12.90;;
19089;SDS011;9677;50.656;13.064;2023-03-01T06:37:25;14.80;;;13.50;;
19089;SDS011;9677;50.656;13.064;2023-03-01T06:39:54;14.80;;;13.40;;
19089;SDS011;9677;50.656;13.064;2023-03-01T06:42:24;15.03;;;13.73;;
19089;SDS011;9677;50.656;13.064;2023-03-01T06:44:54;15.23;;;13.83;;
19089;SDS011;9677;50.656;13.064;2023-03-01T06:47:31;15.47;;;14.07;;
19089;SDS011;9677;50.656;13.064;2023-03-01T06:50:01;15.83;;;14.43;;
19089;SDS011;9677;50.656;13.064;2023-03-01T06:53:08;15.23;;;13.73;;
19089;SDS011;9677;50.656;13.064;2023-03-01T06:55:37;15.07;;;13.57;;
19089;SDS011;9677;50.656;13.064;2023-03-01T06:58:05;15.20;;;13.90;;
19089;SDS011;9677;50.656;13.064;2023-03-01T07:00:33;14.70;;;13.40;;
19089;SDS011;9677;50.656;13.064;2023-03-01T07:03:02;15.30;;;14.00;;
19089;SDS011;9677;50.656;13.064;2023-03-01T07:05:32;14.50;;;13.20;;
19089;SDS011;9677;50.656;13.064;2023-03-01T07:08:01;14.80;;;13.50;;
19089;SDS011;9677;50.656;13.064;2023-03-01T07:10:30;14.33;;;13.03;;
19089;SDS011;9677;50.656;13.064;2023-03-01T07:12:59;15.33;;;13.93;;
19089;SDS011;9677;50.656;13.064;2023-03-01T07:15:27;15.30;;;13.90;;
19089;SDS011;9677;50.656;13.064;2023-03-01T07:17:56;14.90;;;13.50;;
19089;SDS011;9677;50.656;13.064;2023-03-01T07:20:24;14.70;;;13.20;;
19089;SDS011;9677;50.656;13.064;2023-03-01T07:22:54;14.60;;;13.30;;
19089;SDS011;9677;50.656;13.064;2023-03-01T07:25:25;14.80;;;13.50;;
19089;SDS011;9677;50.656;13.064;2023-03-01T07:27:53;14.60;;;13.40;;
19089;SDS011;9677;50.656;13.064;2023-03-01T07:30:22;14.77;;;13.43;;
19089;SDS011;9677;50.656;13.064;2023-03-01T07:32:52;14.80;;;13.50;;
19089;SDS011;9677;50.656;13.064;2023-03-01T07:35:21;15.10;;;13.77;;
19089;SDS011;9677;50.656;13.064;2023-03-01T07:37:51;16.30;;;14.40;;
19089;SDS011;9677;50.656;13.064;2023-03-01T07:40:20;15.43;;;14.03;;
19089;SDS011;9677;50.656;13.064;2023-03-01T07:42:49;15.60;;;14.20;;
19089;SDS011;9677;50.656;13.064;2023-03-01T07:45:23;14.67;;;13.40;;
19089;SDS011;9677;50.656;13.064;2023-03-01T07:47:52;15.00;;;13.70;;
19089;SDS011;9677;50.656;13.064;2023-03-01T07:50:21;15.77;;;14.37;;
19089;SDS011;9677;50.656;13.064;2023-03-01T07:52:50;16.17;;;14.20;;
19089;SDS011;9677;50.656;13.064;2023-03-01T07:55:18;14.97;;;13.67;;
19089;SDS011;9677;50.656;13.064;2023-03-01T07:57:48;14.83;;;13.53;;
19089;SDS011;9677;50.656;13.064;2023-03-01T08:00:17;15.67;;;14.20;;
19089;SDS011;9677;50.656;13.064;2023-03-01T08:02:46;17.60;;;13.90;;
19089;SDS011;9677;50.656;13.064;2023-03-01T08:05:15;15.27;;;13.70;;
19089;SDS011;9677;50.656;13.064;2023-03-01T08:07:44;15.27;;;13.87;;
19089;SDS011;9677;50.656;13.064;2023-03-01T08:10:12;15.70;;;14.13;;
19089;SDS011;9677;50.656;13.064;2023-03-01T08:12:42;15.27;;;13.83;;
19089;SDS011;9677;50.656;13.064;2023-03-01T08:15:10;13.93;;;12.73;;
19089;SDS011;9677;50.656;13.064;2023-03-01T08:17:39;15.30;;;13.80;;
19089;SDS011;9677;50.656;13.064;2023-03-01T08:20:08;14.90;;;13.50;;
19089;SDS011;9677;50.656;13.064;2023-03-01T08:22:39;15.27;;;13.93;;
19089;SDS011;9677;50.656;13.064;2023-03-01T08:25:07;14.67;;;13.37;;
19089;SDS011;9677;50.656;13.064;2023-03-01T08:27:36;15.00;;;13.60;;
19089;SDS011;9677;50.656;13.064;2023-03-01T08:30:07;14.93;;;13.63;;
19089;SDS011;9677;50.656;13.064;2023-03-01T08:32:37;15.50;;;14.07;;
19089;SDS011;9677;50.656;13.064;2023-03-01T08:35:07;14.40;;;13.20;;
19089;SDS011;9677;50.656;13.064;2023-03-01T08:37:36;14.40;;;13.10;;
19089;SDS011;9677;50.656;13.064;2023-03-01T08:40:05;15.20;;;13.70;;
19089;SDS011;9677;50.656;13.064;2023-03-01T08:42:37;15.20;;;13.80;;
19089;SDS011;9677;50.656;13.064;2023-03-01T08:45:07;14.80;;;13.43;;
19089;SDS011;9677;50.656;13.064;2023-03-01T08:47:37;14.90;;;13.40;;
19089;SDS011;9677;50.656;13.064;2023-03-01T08:50:06;15.20;;;13.83;;
19089;SDS011;9677;50.656;13.064;2023-03-01T08:52:35;15.00;;;13.70;;
19089;SDS011;9677;50.656;13.064;2023-03-01T08:55:04;15.90;;;14.50;;
19089;SDS011;9677;50.656;13.064;2023-03-01T08:57:34;15.53;;;14.00;;
19089;SDS011;9677;50.656;13.064;2023-03-01T09:00:03;15.87;;;14.37;;
19089;SDS011;9677;50.656;13.064;2023-03-01T09:02:36;15.43;;;13.93;;
19089;SDS011;9677;50.656;13.064;2023-03-01T09:05:05;15.13;;;13.50;;
19089;SDS011;9677;50.656;13.064;2023-03-01T09:07:34;16.57;;;14.97;;
19089;SDS011;9677;50.656;13.064;2023-03-01T09:10:03;15.30;;;13.80;;
19089;SDS011;9677;50.656;13.064;2023-03-01T09:12:32;14.97;;;13.67;;
19089;SDS011;9677;50.656;13.064;2023-03-01T09:15:00;15.27;;;13.87;;
19089;SDS011;9677;50.656;13.064;2023-03-01T09:17:29;15.20;;;13.70;;
19089;SDS011;9677;50.656;13.064;2023-03-01T09:19:58;15.77;;;14.27;;
19089;SDS011;9677;50.656;13.064;2023-03-01T09:22:27;16.80;;;15.03;;
19089;SDS011;9677;50.656;13.064;2023-03-01T09:24:55;15.23;;;13.83;;
19089;SDS011;9677;50.656;13.064;2023-03-01T09:27:25;19.17;;;14.47;;
19089;SDS011;9677;50.656;13.064;2023-03-01T09:29:54;15.93;;;14.43;;
19089;SDS011;9677;50.656;13.064;2023-03-01T09:32:23;15.63;;;14.00;;
19089;SDS011;9677;50.656;13.064;2023-03-01T09:34:52;16.13;;;14.50;;
19089;SDS011;9677;50.656;13.064;2023-03-01T09:37:32;16.43;;;14.83;;
19089;SDS011;9677;50.656;13.064;2023-03-01T09:40:02;15.77;;;14.10;;
19089;SDS011;9677;50.656;13.064;2023-03-01T09:42:34;16.20;;;14.60;;
19089;SDS011;9677;50.656;13.064;2023-03-01T09:45:05;16.20;;;14.70;;
19089;SDS011;9677;50.656;13.064;2023-03-01T09:47:39;16.40;;;13.80;;
19089;SDS011;9677;50.656;13.064;2023-03-01T09:50:10;15.90;;;14.30;;
19089;SDS011;9677;50.656;13.064;2023-03-01T09:52:45;15.00;;;13.60;;
19089;SDS011;9677;50.656;13.064;2023-03-01T09:55:20;16.90;;;15.27;;
19089;SDS011;9677;50.656;13.064;2023-03-01T09:57:56;14.67;;;13.17;;
19089;SDS011;9677;50.656;13.064;2023-03-01T10:00:33;15.33;;;13.83;;
19089;SDS011;9677;50.656;13.064;2023-03-01T10:03:10;16.30;;;14.60;;
19089;SDS011;9677;50.656;13.064;2023-03-01T10:05:47;19.23;;;15.30;;
19089;SDS011;9677;50.656;13.064;2023-03-01T10:08:28;16.10;;;14.23;;
19089;SDS011;9677;50.656;13.064;2023-03-01T10:11:05;15.90;;;14.20;;
19089;SDS011;9677;50.656;13.064;2023-03-01T10:13:52;15.80;;;14.30;;
19089;SDS011;9677;50.656;13.064;2023-03-01T10:16:27;15.87;;;14.20;;
19089;SDS011;9677;50.656;13.064;2023-03-01T10:19:06;16.90;;;12.97;;
19089;SDS011;9677;50.656;13.064;2023-03-01T10:21:43;16.27;;;14.33;;
19089;SDS011;9677;50.656;13.064;2023-03-01T10:24:15;15.17;;;13.57;;
19089;SDS011;9677;50.656;13.064;2023-03-01T10:26:54;15.30;;;13.50;;
19089;SDS011;9677;50.656;13.064;2023-03-01T10:29:26;19.57;;;14.00;;
19089;SDS011;9677;50.656;13.064;2023-03-01T10:32:03;15.93;;;13.70;;
19089;SDS011;9677;50.656;13.064;2023-03-01T10:34:34;14.40;;;13.00;;
19089;SDS011;9677;50.656;13.064;2023-03-01T10:37:08;17.00;;;13.50;;
19089;SDS011;9677;50.656;13.064;2023-03-01T10:42:27;15.07;;;13.27;;
19089;SDS011;9677;50.656;13.064;2023-03-01T10:45:00;14.43;;;12.93;;
19089;SDS011;9677;50.656;13.064;2023-03-01T10:47:47;14.70;;;13.30;;
19089;SDS011;9677;50.656;13.064;2023-03-01T10:50:33;20.00;;;12.60;;
19089;SDS011;9677;50.656;13.064;2023-03-01T10:53:08;14.97;;;13.37;;
19089;SDS011;9677;50.656;13.064;2023-03-01T10:55:57;16.50;;;13.67;;
19089;SDS011;9677;50.656;13.064;2023-03-01T10:58:28;13.80;;;11.87;;
19089;SDS011;9677;50.656;13.064;2023-03-01T11:00:59;13.70;;;12.30;;
19089;SDS011;9677;50.656;13.064;2023-03-01T11:03:30;17.33;;;12.60;;
19089;SDS011;9677;50.656;13.064;2023-03-01T11:06:03;14.43;;;12.40;;
19089;SDS011;9677;50.656;13.064;2023-03-01T11:08:41;14.40;;;13.00;;
19089;SDS011;9677;50.656;13.064;2023-03-01T11:11:14;14.00;;;12.50;;
19089;SDS011;9677;50.656;13.064;2023-03-01T11:13:55;15.93;;;12.50;;
19089;SDS011;9677;50.656;13.064;2023-03-01T11:16:33;22.60;;;12.27;;
19089;SDS011;9677;50.656;13.064;2023-03-01T11:19:19;14.30;;;12.47;;
19089;SDS011;9677;50.656;13.064;2023-03-01T11:22:00;15.50;;;12.33;;
19089;SDS011;9677;50.656;13.064;2023-03-01T11:24:34;14.43;;;12.37;;
19089;SDS011;9677;50.656;13.064;2023-03-01T11:27:16;17.33;;;12.20;;
19089;SDS011;9677;50.656;13.064;2023-03-01T11:29:51;19.13;;;12.37;;
19089;SDS011;9677;50.656;13.064;2023-03-01T11:32:24;14.20;;;12.10;;
19089;SDS011;9677;50.656;13.064;2023-03-01T11:34:59;15.07;;;12.80;;
19089;SDS011;9677;50.656;13.064;2023-03-01T11:40:52;19.97;;;12.60;;
19089;SDS011;9677;50.656;13.064;2023-03-01T11:43:35;17.90;;;12.67;;
19089;SDS011;9677;50.656;13.064;2023-03-01T11:52:16;15.40;;;12.90;;
19089;SDS011;9677;50.656;13.064;2023-03-01T11:54:58;17.90;;;13.70;;
19089;SDS011;9677;50.656;13.064;2023-03-01T11:57:49;19.80;;;14.70;;
19089;SDS011;9677;50.656;13.064;2023-03-01T12:00:43;17.27;;;12.97;;
19089;SDS011;9677;50.656;13.064;2023-03-01T12:03:30;14.63;;;12.73;;
19089;SDS011;9677;50.656;13.064;2023-03-01T12:06:18;14.43;;;12.83;;
19089;SDS011;9677;50.656;13.064;2023-03-01T12:09:03;15.63;;;13.57;;
19089;SDS011;9677;50.656;13.064;2023-03-01T12:15:33;16.67;;;13.53;;
19089;SDS011;9677;50.656;13.064;2023-03-01T12:18:18;19.83;;;13.33;;
19089;SDS011;9677;50.656;13.064;2023-03-01T12:21:06;15.47;;;13.40;;
19089;SDS011;9677;50.656;13.064;2023-03-01T12:23:56;19.77;;;13.40;;
19089;SDS011;9677;50.656;13.064;2023-03-01T12:26:53;14.80;;;13.20;;
19089;SDS011;9677;50.656;13.064;2023-03-01T12:29:38;15.50;;;13.80;;
19089;SDS011;9677;50.656;13.064;2023-03-01T12:32:17;16.93;;;13.77;;
19089;SDS011;9677;50.656;13.064;2023-03-01T12:38:07;21.83;;;14.60;;
19089;SDS011;9677;50.656;13.064;2023-03-01T12:41:11;16.93;;;14.37;;
19089;SDS011;9677;50.656;13.064;2023-03-01T12:43:57;17.93;;;14.73;;
19089;SDS011;9677;50.656;13.064;2023-03-01T12:46:38;17.67;;;14.87;;
19089;SDS011;9677;50.656;13.064;2023-03-01T12:49:23;23.93;;;16.20;;
19089;SDS011;9677;50.656;13.064;2023-03-01T12:51:58;17.37;;;14.97;;
19089;SDS011;9677;50.656;13.064;2023-03-01T12:54:35;18.37;;;14.63;;
19089;SDS011;9677;50.656;13.064;2023-03-01T12:57:06;19.93;;;14.90;;
19089;SDS011;9677;50.656;13.064;2023-03-01T12:59:45;17.97;;;14.90;;
19089;SDS011;9677;50.656;13.064;2023-03-01T13:02:45;17.30;;;15.20;;
19089;SDS011;9677;50.656;13.064;2023-03-01T13:06:26;18.60;;;14.70;;
19089;SDS011;9677;50.656;13.064;2023-03-01T13:09:24;20.30;;;14.73;;
19089;SDS011;9677;50.656;13.064;2023-03-01T13:11:59;15.83;;;14.07;;
19089;SDS011;9677;50.656;13.064;2023-03-01T13:14:46;17.97;;;14.20;;
19089;SDS011;9677;50.656;13.064;2023-03-01T13:17:32;17.40;;;14.50;;
19089;SDS011;9677;50.656;13.064;2023-03-01T13:20:12;17.50;;;15.37;;
19089;SDS011;9677;50.656;13.064;2023-03-01T13:32:09;18.60;;;14.40;;
19089;SDS011;9677;50.656;13.064;2023-03-01T13:41:13;38.40;;;16.80;;
19089;SDS011;9677;50.656;13.064;2023-03-01T13:43:46;17.97;;;15.63;;
19089;SDS011;9677;50.656;13.064;2023-03-01T13:49:16;20.13;;;15.73;;
19089;SDS011;9677;50.656;13.064;2023-03-01T13:51:47;16.40;;;14.30;;
19089;SDS011;9677;50.656;13.064;2023-03-01T13:54:20;17.53;;;13.87;;
19089;SDS011;9677;50.656;13.064;2023-03-01T13:56:58;19.17;;;15.10;;
19089;SDS011;9677;50.656;13.064;2023-03-01T13:59:28;18.70;;;15.73;;
19089;SDS011;9677;50.656;13.064;2023-03-01T14:01:57;19.80;;;14.63;;
19089;SDS011;9677;50.656;13.064;2023-03-01T14:04:30;25.87;;;14.97;;
19089;SDS011;9677;50.656;13.064;2023-03-01T14:07:09;16.80;;;13.87;;
19089;SDS011;9677;50.656;13.064;2023-03-01T14:09:40;15.80;;;14.20;;
19089;SDS011;9677;50.656;13.064;2023-03-01T14:12:14;22.10;;;14.73;;
19089;SDS011;9677;50.656;13.064;2023-03-01T14:14:55;16.83;;;14.50;;
19089;SDS011;9677;50.656;13.064;2023-03-01T14:17:48;18.20;;;15.70;;
19089;SDS011;9677;50.656;13.064;2023-03-01T14:20:25;17.27;;;15.33;;
19089;SDS011;9677;50.656;13.064;2023-03-01T14:22:58;17.70;;;14.90;;
19089;SDS011;9677;50.656;13.064;2023-03-01T14:25:30;17.43;;;14.60;;
19089;SDS011;9677;50.656;13.064;2023-03-01T14:28:03;15.80;;;14.20;;
19089;SDS011;9677;50.656;13.064;2023-03-01T14:30:42;16.83;;;15.10;;
19089;SDS011;9677;50.656;13.064;2023-03-01T14:33:19;20.63;;;14.43;;
19089;SDS011;9677;50.656;13.064;2023-03-01T14:35:56;21.57;;;15.97;;
19089;SDS011;9677;50.656;13.064;2023-03-01T14:38:31;18.80;;;16.20;;
19089;SDS011;9677;50.656;13.064;2023-03-01T14:41:03;20.07;;;15.47;;
19089;SDS011;9677;50.656;13.064;2023-03-01T14:43:34;21.93;;;15.33;;
19089;SDS011;9677;50.656;13.064;2023-03-01T14:46:04;20.00;;;15.20;;
19089;SDS011;9677;50.656;13.064;2023-03-01T14:48:33;21.80;;;16.30;;
19089;SDS011;9677;50.656;13.064;2023-03-01T14:51:03;17.70;;;15.90;;
19089;SDS011;9677;50.656;13.064;2023-03-01T14:53:32;16.93;;;14.57;;
19089;SDS011;9677;50.656;13.064;2023-03-01T14:56:16;20.70;;;14.60;;
19089;SDS011;9677;50.656;13.064;2023-03-01T14:58:46;22.40;;;15.03;;
19089;SDS011;9677;50.656;13.064;2023-03-01T15:01:18;20.13;;;14.80;;
19089;SDS011;9677;50.656;13.064;2023-03-01T15:03:49;15.97;;;14.37;;
19089;SDS011;9677;50.656;13.064;2023-03-01T15:06:21;17.20;;;14.50;;
19089;SDS011;9677;50.656;13.064;2023-03-01T15:08:51;18.97;;;15.00;;
19089;SDS011;9677;50.656;13.064;2023-03-01T15:11:24;18.83;;;15.50;;
19089;SDS011;9677;50.656;13.064;2023-03-01T15:13:57;19.07;;;14.87;;
19089;SDS011;9677;50.656;13.064;2023-03-01T15:16:26;15.60;;;14.03;;
19089;SDS011;9677;50.656;13.064;2023-03-01T15:18:57;16.37;;;14.63;;
19089;SDS011;9677;50.656;13.064;2023-03-01T15:21:31;16.77;;;14.83;;
19089;SDS011;9677;50.656;13.064;2023-03-01T15:24:02;18.50;;;15.10;;
19089;SDS011;9677;50.656;13.064;2023-03-01T15:26:39;16.33;;;14.63;;
19089;SDS011;9677;50.656;13.064;2023-03-01T15:29:12;16.97;;;15.20;;
19089;SDS011;9677;50.656;13.064;2023-03-01T15:31:53;15.53;;;13.93;;
19089;SDS011;9677;50.656;13.064;2023-03-01T15:34:25;18.43;;;14.13;;
19089;SDS011;9677;50.656;13.064;2023-03-01T15:36:57;15.60;;;13.97;;
19089;SDS011;9677;50.656;13.064;2023-03-01T15:39:33;16.53;;;14.60;;
19089;SDS011;9677;50.656;13.064;2023-03-01T15:42:05;15.70;;;13.50;;
19089;SDS011;9677;50.656;13.064;2023-03-01T15:44:38;14.53;;;13.13;;
19089;SDS011;9677;50.656;13.064;2023-03-01T15:47:25;15.17;;;13.17;;
19089;SDS011;9677;50.656;13.064;2023-03-01T15:49:56;18.67;;;13.70;;
19089;SDS011;9677;50.656;13.064;2023-03-01T15:52:29;23.00;;;14.33;;
19089;SDS011;9677;50.656;13.064;2023-03-01T15:55:06;15.37;;;13.87;;
19089;SDS011;9677;50.656;13.064;2023-03-01T15:57:44;15.33;;;13.80;;
19089;SDS011;9677;50.656;13.064;2023-03-01T16:00:13;15.83;;;14.27;;
19089;SDS011;9677;50.656;13.064;2023-03-01T16:02:44;16.73;;;14.30;;
19089;SDS011;9677;50.656;13.064;2023-03-01T16:05:15;15.50;;;13.77;;
19089;SDS011;9677;50.656;13.064;2023-03-01T16:07:49;15.43;;;13.63;;
19089;SDS011;9677;50.656;13.064;2023-03-01T16:10:18;14.10;;;12.70;;
19089;SDS011;9677;50.656;13.064;2023-03-01T16:12:47;19.60;;;13.10;;
19089;SDS011;9677;50.656;13.064;2023-03-01T16:15:18;15.63;;;14.03;;
19089;SDS011;9677;50.656;13.064;2023-03-01T16:17:48;15.30;;;13.00;;
19089;SDS011;9677;50.656;13.064;2023-03-01T16:20:21;13.80;;;12.40;;
19089;SDS011;9677;50.656;13.064;2023-03-01T16:22:58;15.13;;;13.50;;
19089;SDS011;9677;50.656;13.064;2023-03-01T16:25:28;15.97;;;13.97;;
19089;SDS011;9677;50.656;13.064;2023-03-01T16:27:58;13.97;;;12.60;;
19089;SDS011;9677;50.656;13.064;2023-03-01T16:30:31;16.17;;;13.63;;
19089;SDS011;9677;50.656;13.064;2023-03-01T16:33:02;14.77;;;13.23;;
19089;SDS011;9677;50.656;13.064;2023-03-01T16:35:50;20.03;;;13.30;;
19089;SDS011;9677;50.656;13.064;2023-03-01T16:38:20;15.10;;;13.50;;
19089;SDS011;9677;50.656;13.064;2023-03-01T16:40:49;15.50;;;13.97;;
19089;SDS011;9677;50.656;13.064;2023-03-01T16:43:19;15.70;;;13.13;;
19089;SDS011;9677;50.656;13.064;2023-03-01T16:45:47;19.90;;;13.90;;
19089;SDS011;9677;50.656;13.064;2023-03-01T16:48:16;14.13;;;12.73;;
19089;SDS011;9677;50.656;13.064;2023-03-01T16:50:44;14.97;;;13.47;;
19089;SDS011;9677;50.656;13.064;2023-03-01T16:53:12;20.97;;;13.30;;
19089;SDS011;9677;50.656;13.064;2023-03-01T16:55:42;13.90;;;12.60;;
19089;SDS011;9677;50.656;13.064;2023-03-01T16:58:12;15.03;;;13.53;;
19089;SDS011;9677;50.656;13.064;2023-03-01T17:00:41;14.37;;;12.97;;
19089;SDS011;9677;50.656;13.064;2023-03-01T17:03:10;14.40;;;12.90;;
19089;SDS011;9677;50.656;13.064;2023-03-01T17:05:40;14.97;;;12.93;;
19089;SDS011;9677;50.656;13.064;2023-03-01T17:08:08;15.20;;;13.70;;
19089;SDS011;9677;50.656;13.064;2023-03-01T17:10:36;16.83;;;14.53;;
19089;SDS011;9677;50.656;13.064;2023-03-01T17:13:06;15.87;;;14.23;;
19089;SDS011;9677;50.656;13.064;2023-03-01T17:15:37;15.60;;;14.00;;
19089;SDS011;9677;50.656;13.064;2023-03-01T17:18:07;15.87;;;13.77;;
19089;SDS011;9677;50.656;13.064;2023-03-01T17:20:36;15.27;;;13.50;;
19089;SDS011;9677;50.656;13.064;2023-03-01T17:23:04;14.67;;;13.30;;
19089;SDS011;9677;50.656;13.064;2023-03-01T17:25:33;16.80;;;14.07;;
19089;SDS011;9677;50.656;13.064;2023-03-01T17:28:01;15.00;;;13.50;;
19089;SDS011;9677;50.656;13.064;2023-03-01T17:30:31;15.13;;;13.63;;
19089;SDS011;9677;50.656;13.064;2023-03-01T17:32:59;17.27;;;13.47;;
19089;SDS011;9677;50.656;13.064;2023-03-01T17:35:28;15.23;;;13.10;;
19089;SDS011;9677;50.656;13.064;2023-03-01T17:37:56;14.67;;;13.17;;
19089;SDS011;9677;50.656;13.064;2023-03-01T17:40:25;15.23;;;13.73;;
19089;SDS011;9677;50.656;13.064;2023-03-01T17:42:53;16.23;;;14.57;;
19089;SDS011;9677;50.656;13.064;2023-03-01T17:45:22;15.50;;;13.90;;
19089;SDS011;9677;50.656;13.064;2023-03-01T17:47:52;15.63;;;14.10;;
19089;SDS011;9677;50.656;13.064;2023-03-01T17:50:20;14.40;;;13.00;;
19089;SDS011;9677;50.656;13.064;2023-03-01T17:52:49;14.87;;;13.37;;
19089;SDS011;9677;50.656;13.064;2023-03-01T17:55:18;15.53;;;14.03;;
19089;SDS011;9677;50.656;13.064;2023-03-01T17:57:46;14.63;;;13.23;;
19089;SDS011;9677;50.656;13.064;2023-03-01T18:00:15;15.80;;;14.20;;
19089;SDS011;9677;50.656;13.064;2023-03-01T18:02:45;15.37;;;13.77;;
19089;SDS011;9677;50.656;13.064;2023-03-01T18:05:14;15.47;;;13.97;;
19089;SDS011;9677;50.656;13.064;2023-03-01T18:07:43;15.67;;;14.13;;
19089;SDS011;9677;50.656;13.064;2023-03-01T18:10:11;15.90;;;14.33;;
19089;SDS011;9677;50.656;13.064;2023-03-01T18:12:40;16.63;;;14.30;;
19089;SDS011;9677;50.656;13.064;2023-03-01T18:15:08;15.33;;;13.13;;
19089;SDS011;9677;50.656;13.064;2023-03-01T18:17:38;15.83;;;14.30;;
19089;SDS011;9677;50.656;13.064;2023-03-01T18:20:06;14.80;;;13.30;;
19089;SDS011;9677;50.656;13.064;2023-03-01T18:22:40;16.70;;;14.00;;
19089;SDS011;9677;50.656;13.064;2023-03-01T18:25:08;15.40;;;13.80;;
19089;SDS011;9677;50.656;13.064;2023-03-01T18:27:37;15.63;;;14.13;;
19089;SDS011;9677;50.656;13.064;2023-03-01T18:30:06;14.00;;;12.70;;
19089;SDS011;9677;50.656;13.064;2023-03-01T18:32:36;15.10;;;13.50;;
19089;SDS011;9677;50.656;13.064;2023-03-01T18:35:05;15.80;;;14.30;;
19089;SDS011;9677;50.656;13.064;2023-03-01T18:37:35;14.77;;;13.27;;
19089;SDS011;9677;50.656;13.064;2023-03-01T18:40:06;15.43;;;13.83;;
19089;SDS011;9677;50.656;13.064;2023-03-01T18:42:36;15.23;;;13.73;;
19089;SDS011;9677;50.656;13.064;2023-03-01T18:45:06;14.63;;;13.23;;
19089;SDS011;9677;50.656;13.064;2023-03-01T18:47:35;15.43;;;13.93;;
19089;SDS011;9677;50.656;13.064;2023-03-01T18:50:04;16.23;;;14.57;;
19089;SDS011;9677;50.656;13.064;2023-03-01T18:52:34;15.93;;;14.40;;
19089;SDS011;9677;50.656;13.064;2023-03-01T18:55:02;15.77;;;14.17;;
19089;SDS011;9677;50.656;13.064;2023-03-01T18:57:33;16.50;;;14.90;;
19089;SDS011;9677;50.656;13.064;2023-03-01T19:00:01;17.23;;;15.53;;
19089;SDS011;9677;50.656;13.064;2023-03-01T19:02:30;17.60;;;15.87;;
19089;SDS011;9677;50.656;13.064;2023-03-01T19:04:59;16.60;;;14.90;;
19089;SDS011;9677;50.656;13.064;2023-03-01T19:07:27;16.80;;;14.83;;
19089;SDS011;9677;50.656;13.064;2023-03-01T19:09:57;16.73;;;14.90;;
19089;SDS011;9677;50.656;13.064;2023-03-01T19:12:27;16.40;;;14.70;;
19089;SDS011;9677;50.656;13.064;2023-03-01T19:14:56;23.27;;;18.53;;
19089;SDS011;9677;50.656;13.064;2023-03-01T19:17:24;32.50;;;22.53;;
19089;SDS011;9677;50.656;13.064;2023-03-01T19:19:56;35.27;;;23.90;;
19089;SDS011;9677;50.656;13.064;2023-03-01T19:22:25;35.97;;;24.97;;
19089;SDS011;9677;50.656;13.064;2023-03-01T19:24:53;30.53;;;20.73;;
19089;SDS011;9677;50.656;13.064;2023-03-01T19:27:21;24.67;;;19.07;;
19089;SDS011;9677;50.656;13.064;2023-03-01T19:29:51;20.43;;;17.23;;
19089;SDS011;9677;50.656;13.064;2023-03-01T19:32:20;25.40;;;19.20;;
19089;SDS011;9677;50.656;13.064;2023-03-01T19:34:48;35.27;;;22.50;;
19089;SDS011;9677;50.656;13.064;2023-03-01T19:37:17;27.37;;;20.30;;